sensor_id;sensor_type;location;lat;lon;timestamp;temperature;humidity
7077;DHT22;3579;48.956;9.154;2022-12-31T00:02:11;19.00;52.80
7077;DHT22;3579;48.956;9.154;2022-12-31T00:04:37;19.00;52.80
7077;DHT22;3579;48.956;9.154;2022-12-31T00:07:03;19.10;52.90
7077;DHT22;3579;48.956;9.154;2022-12-31T00:09:29;19.00;52.80
7077;DHT22;3579;48.956;9.154;2022-12-31T00:11:55;19.00;52.90
7077;DHT22;3579;48.956;9.154;2022-12-31T00:14:21;19.00;52.90
7077;DHT22;3579;48.956;9.154;2022-12-31T00:16:47;19.00;52.90
7077;DHT22;3579;48.956;9.154;2022-12-31T00:19:13;19.00;52.90
7077;DHT22;3579;48.956;9.154;2022-12-31T00:21:39;19.00;52.90
7077;DHT22;3579;48.956;9.154;2022-12-31T00:24:06;19.00;52.90
7077;DHT22;3579;48.956;9.154;2022-12-31T00:26:33;19.00;52.90
7077;DHT22;3579;48.956;9.154;2022-12-31T00:29:00;19.00;52.90
7077;DHT22;3579;48.956;9.154;2022-12-31T00:31:34;19.00;53.00
7077;DHT22;3579;48.956;9.154;2022-12-31T00:34:01;19.00;53.00
7077;DHT22;3579;48.956;9.154;2022-12-31T00:36:30;19.00;53.00
7077;DHT22;3579;48.956;9.154;2022-12-31T00:38:57;19.00;53.00
7077;DHT22;3579;48.956;9.154;2022-12-31T00:41:25;19.00;53.00
7077;DHT22;3579;48.956;9.154;2022-12-31T00:43:51;19.00;53.00
7077;DHT22;3579;48.956;9.154;2022-12-31T00:46:18;18.90;53.00
7077;DHT22;3579;48.956;9.154;2022-12-31T00:48:45;18.90;53.00
7077;DHT22;3579;48.956;9.154;2022-12-31T00:51:15;19.00;53.10
7077;DHT22;3579;48.956;9.154;2022-12-31T00:53:42;19.00;53.10
7077;DHT22;3579;48.956;9.154;2022-12-31T00:56:14;19.00;53.60
7077;DHT22;3579;48.956;9.154;2022-12-31T00:58:41;18.90;53.00
7077;DHT22;3579;48.956;9.154;2022-12-31T01:01:32;18.90;53.00
7077;DHT22;3579;48.956;9.154;2022-12-31T01:04:04;18.90;53.10
7077;DHT22;3579;48.956;9.154;2022-12-31T01:06:31;18.90;53.10
7077;DHT22;3579;48.956;9.154;2022-12-31T01:08:57;18.90;53.10
7077;DHT22;3579;48.956;9.154;2022-12-31T01:11:24;19.00;53.10
7077;DHT22;3579;48.956;9.154;2022-12-31T01:14:05;18.90;53.00
7077;DHT22;3579;48.956;9.154;2022-12-31T01:16:46;18.90;53.00
7077;DHT22;3579;48.956;9.154;2022-12-31T01:19:21;18.90;53.10
7077;DHT22;3579;48.956;9.154;2022-12-31T01:21:48;18.90;53.10
7077;DHT22;3579;48.956;9.154;2022-12-31T01:24:15;18.90;53.10
7077;DHT22;3579;48.956;9.154;2022-12-31T01:26:42;18.90;53.10
7077;DHT22;3579;48.956;9.154;2022-12-31T01:29:09;18.90;53.10
7077;DHT22;3579;48.956;9.154;2022-12-31T01:31:36;18.90;53.10
7077;DHT22;3579;48.956;9.154;2022-12-31T01:34:03;18.90;53.10
7077;DHT22;3579;48.956;9.154;2022-12-31T01:36:32;18.90;53.10
7077;DHT22;3579;48.956;9.154;2022-12-31T01:39:00;18.90;53.10
7077;DHT22;3579;48.956;9.154;2022-12-31T01:41:35;18.90;53.10
7077;DHT22;3579;48.956;9.154;2022-12-31T01:47:03;18.90;53.20
7077;DHT22;3579;48.956;9.154;2022-12-31T01:49:36;18.90;53.80
7077;DHT22;3579;48.956;9.154;2022-12-31T01:52:05;18.90;53.20
7077;DHT22;3579;48.956;9.154;2022-12-31T01:54:36;18.90;53.20
7077;DHT22;3579;48.956;9.154;2022-12-31T01:57:03;18.90;53.20
7077;DHT22;3579;48.956;9.154;2022-12-31T01:59:30;18.90;53.20
7077;DHT22;3579;48.956;9.154;2022-12-31T02:01:58;18.90;53.20
7077;DHT22;3579;48.956;9.154;2022-12-31T02:04:26;18.90;53.20
7077;DHT22;3579;48.956;9.154;2022-12-31T02:06:56;18.90;53.20
7077;DHT22;3579;48.956;9.154;2022-12-31T02:09:23;18.90;53.30
7077;DHT22;3579;48.956;9.154;2022-12-31T02:11:50;18.90;53.30
7077;DHT22;3579;48.956;9.154;2022-12-31T02:14:20;18.90;53.30
7077;DHT22;3579;48.956;9.154;2022-12-31T02:17:10;18.80;53.20
7077;DHT22;3579;48.956;9.154;2022-12-31T02:30:36;18.80;53.20
7077;DHT22;3579;48.956;9.154;2022-12-31T02:33:25;18.80;53.20
7077;DHT22;3579;48.956;9.154;2022-12-31T02:35:54;18.80;53.30
7077;DHT22;3579;48.956;9.154;2022-12-31T02:38:30;18.80;53.30
7077;DHT22;3579;48.956;9.154;2022-12-31T02:40:57;18.80;53.30
7077;DHT22;3579;48.956;9.154;2022-12-31T02:43:24;18.80;53.30
7077;DHT22;3579;48.956;9.154;2022-12-31T02:48:44;18.80;53.40
7077;DHT22;3579;48.956;9.154;2022-12-31T02:51:39;18.80;53.30
7077;DHT22;3579;48.956;9.154;2022-12-31T02:54:16;18.80;53.40
7077;DHT22;3579;48.956;9.154;2022-12-31T02:56:58;18.80;53.40
7077;DHT22;3579;48.956;9.154;2022-12-31T02:59:36;18.80;53.40
7077;DHT22;3579;48.956;9.154;2022-12-31T03:02:23;18.80;53.40
7077;DHT22;3579;48.956;9.154;2022-12-31T03:04:55;18.80;53.40
7077;DHT22;3579;48.956;9.154;2022-12-31T03:07:26;18.80;53.40
7077;DHT22;3579;48.956;9.154;2022-12-31T03:09:53;18.80;53.40
7077;DHT22;3579;48.956;9.154;2022-12-31T03:12:22;18.80;53.40
7077;DHT22;3579;48.956;9.154;2022-12-31T03:15:08;18.80;53.30
7077;DHT22;3579;48.956;9.154;2022-12-31T03:20:20;18.80;53.40
7077;DHT22;3579;48.956;9.154;2022-12-31T03:23:08;18.80;53.40
7077;DHT22;3579;48.956;9.154;2022-12-31T03:25:34;18.80;53.40
7077;DHT22;3579;48.956;9.154;2022-12-31T03:28:04;18.80;53.40
7077;DHT22;3579;48.956;9.154;2022-12-31T03:30:32;18.80;53.40
7077;DHT22;3579;48.956;9.154;2022-12-31T03:32:59;18.80;53.40
7077;DHT22;3579;48.956;9.154;2022-12-31T03:35:26;18.80;53.40
7077;DHT22;3579;48.956;9.154;2022-12-31T03:37:53;18.80;53.40
7077;DHT22;3579;48.956;9.154;2022-12-31T03:40:21;18.80;53.40
7077;DHT22;3579;48.956;9.154;2022-12-31T03:42:47;18.80;53.40
7077;DHT22;3579;48.956;9.154;2022-12-31T03:45:14;18.80;53.40
7077;DHT22;3579;48.956;9.154;2022-12-31T03:47:41;18.80;53.40
7077;DHT22;3579;48.956;9.154;2022-12-31T03:50:08;18.80;53.40
7077;DHT22;3579;48.956;9.154;2022-12-31T03:52:35;18.80;53.40
7077;DHT22;3579;48.956;9.154;2022-12-31T03:55:01;18.80;53.40
7077;DHT22;3579;48.956;9.154;2022-12-31T03:57:28;18.80;53.50
7077;DHT22;3579;48.956;9.154;2022-12-31T03:59:54;18.70;53.40
7077;DHT22;3579;48.956;9.154;2022-12-31T04:02:20;18.80;53.60
7077;DHT22;3579;48.956;9.154;2022-12-31T04:04:47;18.70;53.50
7077;DHT22;3579;48.956;9.154;2022-12-31T04:07:13;18.80;54.10
7077;DHT22;3579;48.956;9.154;2022-12-31T04:09:39;18.80;53.60
7077;DHT22;3579;48.956;9.154;2022-12-31T04:12:05;18.80;53.60
7077;DHT22;3579;48.956;9.154;2022-12-31T04:14:31;18.70;53.50
7077;DHT22;3579;48.956;9.154;2022-12-31T04:16:57;18.70;53.50
7077;DHT22;3579;48.956;9.154;2022-12-31T04:19:24;18.70;53.50
7077;DHT22;3579;48.956;9.154;2022-12-31T04:21:50;18.70;53.50
7077;DHT22;3579;48.956;9.154;2022-12-31T04:24:16;18.80;53.60
7077;DHT22;3579;48.956;9.154;2022-12-31T04:26:42;18.80;53.60
7077;DHT22;3579;48.956;9.154;2022-12-31T04:29:09;18.70;53.50
7077;DHT22;3579;48.956;9.154;2022-12-31T04:31:35;18.70;53.60
7077;DHT22;3579;48.956;9.154;2022-12-31T04:34:01;18.70;53.50
7077;DHT22;3579;48.956;9.154;2022-12-31T04:36:28;18.80;53.60
7077;DHT22;3579;48.956;9.154;2022-12-31T04:38:55;18.80;53.60
7077;DHT22;3579;48.956;9.154;2022-12-31T04:41:21;18.70;53.50
7077;DHT22;3579;48.956;9.154;2022-12-31T04:43:51;18.80;53.60
7077;DHT22;3579;48.956;9.154;2022-12-31T04:46:20;18.70;53.60
7077;DHT22;3579;48.956;9.154;2022-12-31T04:48:47;18.70;53.60
7077;DHT22;3579;48.956;9.154;2022-12-31T04:51:13;18.70;53.60
7077;DHT22;3579;48.956;9.154;2022-12-31T04:53:39;18.70;53.70
7077;DHT22;3579;48.956;9.154;2022-12-31T04:56:06;18.70;53.70
7077;DHT22;3579;48.956;9.154;2022-12-31T04:58:33;18.70;53.70
7077;DHT22;3579;48.956;9.154;2022-12-31T05:00:59;18.70;53.60
7077;DHT22;3579;48.956;9.154;2022-12-31T05:03:26;18.70;53.70
7077;DHT22;3579;48.956;9.154;2022-12-31T05:05:53;18.70;53.70
7077;DHT22;3579;48.956;9.154;2022-12-31T05:08:20;18.70;53.60
7077;DHT22;3579;48.956;9.154;2022-12-31T05:10:47;18.70;53.60
7077;DHT22;3579;48.956;9.154;2022-12-31T05:13:14;18.70;53.60
7077;DHT22;3579;48.956;9.154;2022-12-31T05:15:41;18.70;53.70
7077;DHT22;3579;48.956;9.154;2022-12-31T05:18:07;18.70;53.70
7077;DHT22;3579;48.956;9.154;2022-12-31T05:20:34;18.70;53.70
7077;DHT22;3579;48.956;9.154;2022-12-31T05:23:00;18.70;53.70
7077;DHT22;3579;48.956;9.154;2022-12-31T05:25:26;18.70;53.60
7077;DHT22;3579;48.956;9.154;2022-12-31T05:27:52;18.70;53.70
7077;DHT22;3579;48.956;9.154;2022-12-31T05:30:19;18.70;53.70
7077;DHT22;3579;48.956;9.154;2022-12-31T05:32:45;18.70;53.70
7077;DHT22;3579;48.956;9.154;2022-12-31T05:35:11;18.70;53.70
7077;DHT22;3579;48.956;9.154;2022-12-31T05:37:38;18.70;53.70
7077;DHT22;3579;48.956;9.154;2022-12-31T05:42:33;18.70;53.70
7077;DHT22;3579;48.956;9.154;2022-12-31T05:44:59;18.70;53.70
7077;DHT22;3579;48.956;9.154;2022-12-31T05:47:25;18.70;53.80
7077;DHT22;3579;48.956;9.154;2022-12-31T05:49:51;18.70;53.80
7077;DHT22;3579;48.956;9.154;2022-12-31T05:52:17;18.70;53.80
7077;DHT22;3579;48.956;9.154;2022-12-31T05:54:43;18.70;53.80
7077;DHT22;3579;48.956;9.154;2022-12-31T05:57:10;18.70;53.80
7077;DHT22;3579;48.956;9.154;2022-12-31T05:59:36;18.70;54.30
7077;DHT22;3579;48.956;9.154;2022-12-31T06:02:02;18.70;53.80
7077;DHT22;3579;48.956;9.154;2022-12-31T06:04:28;18.70;53.80
7077;DHT22;3579;48.956;9.154;2022-12-31T06:06:54;18.70;53.80
7077;DHT22;3579;48.956;9.154;2022-12-31T06:09:20;18.70;53.80
7077;DHT22;3579;48.956;9.154;2022-12-31T06:11:47;18.70;53.80
7077;DHT22;3579;48.956;9.154;2022-12-31T06:14:13;18.70;53.80
7077;DHT22;3579;48.956;9.154;2022-12-31T06:16:40;18.70;53.80
7077;DHT22;3579;48.956;9.154;2022-12-31T06:19:06;18.70;53.80
7077;DHT22;3579;48.956;9.154;2022-12-31T06:21:32;18.70;53.80
7077;DHT22;3579;48.956;9.154;2022-12-31T06:23:58;18.70;53.80
7077;DHT22;3579;48.956;9.154;2022-12-31T06:26:26;18.70;53.80
7077;DHT22;3579;48.956;9.154;2022-12-31T06:28:52;18.70;53.80
7077;DHT22;3579;48.956;9.154;2022-12-31T06:31:18;18.70;53.80
7077;DHT22;3579;48.956;9.154;2022-12-31T06:33:44;18.70;53.80
7077;DHT22;3579;48.956;9.154;2022-12-31T06:36:14;18.70;54.30
7077;DHT22;3579;48.956;9.154;2022-12-31T06:38:42;18.70;53.80
7077;DHT22;3579;48.956;9.154;2022-12-31T06:41:12;18.70;53.80
7077;DHT22;3579;48.956;9.154;2022-12-31T06:43:40;18.70;53.80
7077;DHT22;3579;48.956;9.154;2022-12-31T06:46:10;18.70;53.80
7077;DHT22;3579;48.956;9.154;2022-12-31T06:48:36;18.70;53.80
7077;DHT22;3579;48.956;9.154;2022-12-31T06:51:11;18.70;53.80
7077;DHT22;3579;48.956;9.154;2022-12-31T06:53:37;18.80;53.80
7077;DHT22;3579;48.956;9.154;2022-12-31T06:56:05;18.70;53.70
7077;DHT22;3579;48.956;9.154;2022-12-31T06:58:33;18.80;53.80
7077;DHT22;3579;48.956;9.154;2022-12-31T07:04:26;18.80;53.90
7077;DHT22;3579;48.956;9.154;2022-12-31T07:10:12;18.70;53.80
7077;DHT22;3579;48.956;9.154;2022-12-31T07:16:20;18.70;53.80
7077;DHT22;3579;48.956;9.154;2022-12-31T07:18:22;18.70;53.80
7077;DHT22;3579;48.956;9.154;2022-12-31T07:20:53;18.70;53.80
7077;DHT22;3579;48.956;9.154;2022-12-31T07:23:20;18.70;53.80
7077;DHT22;3579;48.956;9.154;2022-12-31T07:26:03;18.80;53.90
7077;DHT22;3579;48.956;9.154;2022-12-31T07:28:49;18.80;53.90
7077;DHT22;3579;48.956;9.154;2022-12-31T07:34:03;18.70;53.80
7077;DHT22;3579;48.956;9.154;2022-12-31T07:39:52;18.80;53.90
7077;DHT22;3579;48.956;9.154;2022-12-31T07:42:37;18.80;53.90
7077;DHT22;3579;48.956;9.154;2022-12-31T07:47:41;18.80;53.90
7077;DHT22;3579;48.956;9.154;2022-12-31T07:50:14;18.80;53.90
7077;DHT22;3579;48.956;9.154;2022-12-31T07:52:40;18.70;53.90
7077;DHT22;3579;48.956;9.154;2022-12-31T07:55:07;18.80;53.90
7077;DHT22;3579;48.956;9.154;2022-12-31T08:00:34;18.80;53.90
7077;DHT22;3579;48.956;9.154;2022-12-31T08:03:12;18.80;53.90
7077;DHT22;3579;48.956;9.154;2022-12-31T08:06:06;18.80;53.90
7077;DHT22;3579;48.956;9.154;2022-12-31T08:08:57;18.80;53.90
7077;DHT22;3579;48.956;9.154;2022-12-31T08:13:53;18.80;53.90
7077;DHT22;3579;48.956;9.154;2022-12-31T08:16:21;18.80;53.90
7077;DHT22;3579;48.956;9.154;2022-12-31T08:18:47;18.80;53.90
7077;DHT22;3579;48.956;9.154;2022-12-31T08:29:45;18.90;53.90
7077;DHT22;3579;48.956;9.154;2022-12-31T08:32:20;18.90;53.90
7077;DHT22;3579;48.956;9.154;2022-12-31T08:35:18;18.90;53.90
7077;DHT22;3579;48.956;9.154;2022-12-31T08:37:51;18.90;53.90
7077;DHT22;3579;48.956;9.154;2022-12-31T08:43:47;19.00;53.90
7077;DHT22;3579;48.956;9.154;2022-12-31T08:46:23;19.00;53.90
7077;DHT22;3579;48.956;9.154;2022-12-31T08:48:51;19.00;53.90
7077;DHT22;3579;48.956;9.154;2022-12-31T08:51:20;19.00;53.90
7077;DHT22;3579;48.956;9.154;2022-12-31T08:53:47;19.00;53.80
7077;DHT22;3579;48.956;9.154;2022-12-31T08:56:33;19.00;53.80
7077;DHT22;3579;48.956;9.154;2022-12-31T08:59:28;19.10;53.90
7077;DHT22;3579;48.956;9.154;2022-12-31T09:08:10;19.10;53.80
7077;DHT22;3579;48.956;9.154;2022-12-31T09:10:52;19.10;53.80
7077;DHT22;3579;48.956;9.154;2022-12-31T09:13:47;19.10;53.80
7077;DHT22;3579;48.956;9.154;2022-12-31T09:18:52;19.20;53.90
7077;DHT22;3579;48.956;9.154;2022-12-31T09:21:19;19.20;53.90
7077;DHT22;3579;48.956;9.154;2022-12-31T09:23:45;19.20;53.90
7077;DHT22;3579;48.956;9.154;2022-12-31T09:29:40;19.30;53.90
7077;DHT22;3579;48.956;9.154;2022-12-31T09:32:19;19.30;53.80
7077;DHT22;3579;48.956;9.154;2022-12-31T09:34:55;19.40;53.90
7077;DHT22;3579;48.956;9.154;2022-12-31T09:42:51;19.40;53.80
7077;DHT22;3579;48.956;9.154;2022-12-31T09:51:34;19.50;53.70
7077;DHT22;3579;48.956;9.154;2022-12-31T09:57:20;19.60;53.70
7077;DHT22;3579;48.956;9.154;2022-12-31T09:59:54;19.60;53.70
7077;DHT22;3579;48.956;9.154;2022-12-31T10:07:55;19.70;53.70
7077;DHT22;3579;48.956;9.154;2022-12-31T10:10:33;19.70;53.70
7077;DHT22;3579;48.956;9.154;2022-12-31T10:30:11;20.00;53.60
7077;DHT22;3579;48.956;9.154;2022-12-31T10:35:26;20.00;53.60
7077;DHT22;3579;48.956;9.154;2022-12-31T10:38:05;20.10;53.60
7077;DHT22;3579;48.956;9.154;2022-12-31T11:01:17;20.30;53.50
7077;DHT22;3579;48.956;9.154;2022-12-31T11:09:27;20.40;53.40
7077;DHT22;3579;48.956;9.154;2022-12-31T11:26:39;20.50;53.40
7077;DHT22;3579;48.956;9.154;2022-12-31T11:31:49;20.50;53.40
7077;DHT22;3579;48.956;9.154;2022-12-31T11:34:48;20.50;53.30
7077;DHT22;3579;48.956;9.154;2022-12-31T11:45:39;20.70;53.30
7077;DHT22;3579;48.956;9.154;2022-12-31T11:56:30;20.70;53.20
7077;DHT22;3579;48.956;9.154;2022-12-31T11:58:58;20.70;53.30
7077;DHT22;3579;48.956;9.154;2022-12-31T12:01:31;20.70;53.30
7077;DHT22;3579;48.956;9.154;2022-12-31T12:04:00;20.80;53.30
7077;DHT22;3579;48.956;9.154;2022-12-31T12:06:29;20.80;53.30
7077;DHT22;3579;48.956;9.154;2022-12-31T12:09:00;20.80;53.20
7077;DHT22;3579;48.956;9.154;2022-12-31T12:11:31;20.80;53.20
7077;DHT22;3579;48.956;9.154;2022-12-31T12:13:58;20.80;53.20
7077;DHT22;3579;48.956;9.154;2022-12-31T12:16:26;20.80;53.20
7077;DHT22;3579;48.956;9.154;2022-12-31T12:19:07;20.80;53.20
7077;DHT22;3579;48.956;9.154;2022-12-31T12:21:45;20.90;53.20
7077;DHT22;3579;48.956;9.154;2022-12-31T12:26:46;20.90;53.20
7077;DHT22;3579;48.956;9.154;2022-12-31T12:29:20;20.90;53.20
7077;DHT22;3579;48.956;9.154;2022-12-31T12:32:11;20.90;53.10
7077;DHT22;3579;48.956;9.154;2022-12-31T12:34:40;20.90;53.10
7077;DHT22;3579;48.956;9.154;2022-12-31T12:37:29;20.90;53.10
7077;DHT22;3579;48.956;9.154;2022-12-31T12:40:06;21.00;53.10
7077;DHT22;3579;48.956;9.154;2022-12-31T12:42:50;21.00;53.10
7077;DHT22;3579;48.956;9.154;2022-12-31T12:45:19;21.00;53.10
7077;DHT22;3579;48.956;9.154;2022-12-31T12:47:47;21.00;53.10
7077;DHT22;3579;48.956;9.154;2022-12-31T12:50:21;21.00;53.10
7077;DHT22;3579;48.956;9.154;2022-12-31T12:53:09;21.00;53.00
7077;DHT22;3579;48.956;9.154;2022-12-31T13:01:21;21.10;53.10
7077;DHT22;3579;48.956;9.154;2022-12-31T13:04:31;21.10;53.20
7077;DHT22;3579;48.956;9.154;2022-12-31T13:07:17;21.10;53.10
7077;DHT22;3579;48.956;9.154;2022-12-31T13:12:53;21.10;53.10
7077;DHT22;3579;48.956;9.154;2022-12-31T13:15:32;21.10;53.10
7077;DHT22;3579;48.956;9.154;2022-12-31T13:21:38;21.10;53.60
7077;DHT22;3579;48.956;9.154;2022-12-31T13:26:31;21.10;53.00
7077;DHT22;3579;48.956;9.154;2022-12-31T13:29:00;21.10;53.00
7077;DHT22;3579;48.956;9.154;2022-12-31T13:31:36;21.10;53.00
7077;DHT22;3579;48.956;9.154;2022-12-31T13:34:12;21.10;53.00
7077;DHT22;3579;48.956;9.154;2022-12-31T13:36:42;21.10;53.00
7077;DHT22;3579;48.956;9.154;2022-12-31T13:39:22;21.20;53.00
7077;DHT22;3579;48.956;9.154;2022-12-31T13:42:13;21.10;53.00
7077;DHT22;3579;48.956;9.154;2022-12-31T13:44:48;21.20;53.00
7077;DHT22;3579;48.956;9.154;2022-12-31T13:47:52;21.20;53.00
7077;DHT22;3579;48.956;9.154;2022-12-31T14:00:49;21.20;53.00
7077;DHT22;3579;48.956;9.154;2022-12-31T14:03:23;21.20;53.10
7077;DHT22;3579;48.956;9.154;2022-12-31T14:06:31;21.20;53.00
7077;DHT22;3579;48.956;9.154;2022-12-31T14:09:00;21.20;53.10
7077;DHT22;3579;48.956;9.154;2022-12-31T14:17:48;21.20;53.10
7077;DHT22;3579;48.956;9.154;2022-12-31T14:23:13;21.20;53.00
7077;DHT22;3579;48.956;9.154;2022-12-31T14:25:48;21.20;53.00
7077;DHT22;3579;48.956;9.154;2022-12-31T14:28:20;21.20;53.00
7077;DHT22;3579;48.956;9.154;2022-12-31T14:30:51;21.20;53.00
7077;DHT22;3579;48.956;9.154;2022-12-31T14:33:33;21.20;53.00
7077;DHT22;3579;48.956;9.154;2022-12-31T14:36:15;21.20;53.00
7077;DHT22;3579;48.956;9.154;2022-12-31T14:50:12;21.10;53.10
7077;DHT22;3579;48.956;9.154;2022-12-31T14:55:35;21.10;53.00
7077;DHT22;3579;48.956;9.154;2022-12-31T14:58:23;21.10;53.10
7077;DHT22;3579;48.956;9.154;2022-12-31T15:00:55;21.10;53.10
7077;DHT22;3579;48.956;9.154;2022-12-31T15:20:13;21.10;53.10
7077;DHT22;3579;48.956;9.154;2022-12-31T15:22:46;21.10;53.10
7077;DHT22;3579;48.956;9.154;2022-12-31T15:25:31;21.10;53.20
7077;DHT22;3579;48.956;9.154;2022-12-31T15:27:59;21.10;53.20
7077;DHT22;3579;48.956;9.154;2022-12-31T15:30:44;21.10;53.20
7077;DHT22;3579;48.956;9.154;2022-12-31T15:33:31;21.00;53.20
7077;DHT22;3579;48.956;9.154;2022-12-31T15:38:38;21.00;53.20
7077;DHT22;3579;48.956;9.154;2022-12-31T15:41:37;21.00;53.20
7077;DHT22;3579;48.956;9.154;2022-12-31T15:49:44;21.00;53.20
7077;DHT22;3579;48.956;9.154;2022-12-31T15:52:17;21.00;53.20
7077;DHT22;3579;48.956;9.154;2022-12-31T15:54:49;21.00;53.20
7077;DHT22;3579;48.956;9.154;2022-12-31T15:57:19;21.00;53.20
7077;DHT22;3579;48.956;9.154;2022-12-31T15:59:48;21.00;53.30
7077;DHT22;3579;48.956;9.154;2022-12-31T16:02:23;21.00;53.30
7077;DHT22;3579;48.956;9.154;2022-12-31T16:04:49;21.00;53.20
7077;DHT22;3579;48.956;9.154;2022-12-31T16:07:16;21.00;53.30
7077;DHT22;3579;48.956;9.154;2022-12-31T16:09:52;21.00;53.30
7077;DHT22;3579;48.956;9.154;2022-12-31T16:12:24;21.00;53.20
7077;DHT22;3579;48.956;9.154;2022-12-31T16:14:53;20.90;53.20
7077;DHT22;3579;48.956;9.154;2022-12-31T16:19:53;20.90;53.20
7077;DHT22;3579;48.956;9.154;2022-12-31T16:24:56;20.90;53.20
7077;DHT22;3579;48.956;9.154;2022-12-31T16:27:23;20.90;53.20
7077;DHT22;3579;48.956;9.154;2022-12-31T16:29:59;20.90;53.20
7077;DHT22;3579;48.956;9.154;2022-12-31T16:32:33;20.90;53.30
7077;DHT22;3579;48.956;9.154;2022-12-31T16:35:00;20.90;53.30
7077;DHT22;3579;48.956;9.154;2022-12-31T16:37:26;20.90;53.30
7077;DHT22;3579;48.956;9.154;2022-12-31T16:42:37;20.90;53.30
7077;DHT22;3579;48.956;9.154;2022-12-31T16:45:27;20.80;53.20
7077;DHT22;3579;48.956;9.154;2022-12-31T16:47:55;20.80;53.20
7077;DHT22;3579;48.956;9.154;2022-12-31T16:50:23;20.80;53.30
7077;DHT22;3579;48.956;9.154;2022-12-31T16:52:54;20.80;53.30
7077;DHT22;3579;48.956;9.154;2022-12-31T16:55:25;20.80;53.30
7077;DHT22;3579;48.956;9.154;2022-12-31T16:57:58;20.80;53.30
7077;DHT22;3579;48.956;9.154;2022-12-31T17:00:25;20.80;53.30
7077;DHT22;3579;48.956;9.154;2022-12-31T17:05:32;20.80;53.40
7077;DHT22;3579;48.956;9.154;2022-12-31T17:08:20;20.80;53.40
7077;DHT22;3579;48.956;9.154;2022-12-31T17:10:47;20.80;53.40
7077;DHT22;3579;48.956;9.154;2022-12-31T17:13:29;20.80;53.40
7077;DHT22;3579;48.956;9.154;2022-12-31T17:15:56;20.80;53.40
7077;DHT22;3579;48.956;9.154;2022-12-31T17:18:27;20.80;53.40
7077;DHT22;3579;48.956;9.154;2022-12-31T17:21:09;20.80;53.40
7077;DHT22;3579;48.956;9.154;2022-12-31T17:23:37;20.80;53.40
7077;DHT22;3579;48.956;9.154;2022-12-31T17:26:10;20.80;53.40
7077;DHT22;3579;48.956;9.154;2022-12-31T17:28:49;20.80;53.40
7077;DHT22;3579;48.956;9.154;2022-12-31T17:36:40;20.80;53.30
7077;DHT22;3579;48.956;9.154;2022-12-31T17:39:15;20.70;53.20
7077;DHT22;3579;48.956;9.154;2022-12-31T17:41:46;20.70;53.30
7077;DHT22;3579;48.956;9.154;2022-12-31T17:44:21;20.70;53.30
7077;DHT22;3579;48.956;9.154;2022-12-31T17:46:48;20.70;53.30
7077;DHT22;3579;48.956;9.154;2022-12-31T17:49:15;20.70;53.30
7077;DHT22;3579;48.956;9.154;2022-12-31T17:51:41;20.70;53.40
7077;DHT22;3579;48.956;9.154;2022-12-31T17:54:13;20.70;53.40
7077;DHT22;3579;48.956;9.154;2022-12-31T17:56:40;20.70;53.40
7077;DHT22;3579;48.956;9.154;2022-12-31T17:59:07;20.70;53.40
7077;DHT22;3579;48.956;9.154;2022-12-31T18:01:33;20.70;53.40
7077;DHT22;3579;48.956;9.154;2022-12-31T18:03:59;20.70;53.30
7077;DHT22;3579;48.956;9.154;2022-12-31T18:06:25;20.60;53.30
7077;DHT22;3579;48.956;9.154;2022-12-31T18:08:52;20.60;53.30
7077;DHT22;3579;48.956;9.154;2022-12-31T18:11:21;20.60;53.40
7077;DHT22;3579;48.956;9.154;2022-12-31T18:13:48;20.60;53.40
7077;DHT22;3579;48.956;9.154;2022-12-31T18:16:14;20.60;53.30
7077;DHT22;3579;48.956;9.154;2022-12-31T18:18:40;20.60;53.40
7077;DHT22;3579;48.956;9.154;2022-12-31T18:21:15;20.60;53.50
7077;DHT22;3579;48.956;9.154;2022-12-31T18:23:46;20.50;53.50
7077;DHT22;3579;48.956;9.154;2022-12-31T18:26:18;20.50;53.50
7077;DHT22;3579;48.956;9.154;2022-12-31T18:28:45;20.50;53.50
7077;DHT22;3579;48.956;9.154;2022-12-31T18:31:16;20.50;53.60
7077;DHT22;3579;48.956;9.154;2022-12-31T18:33:44;20.50;53.60
7077;DHT22;3579;48.956;9.154;2022-12-31T18:36:16;20.50;53.50
7077;DHT22;3579;48.956;9.154;2022-12-31T18:38:42;20.50;53.50
7077;DHT22;3579;48.956;9.154;2022-12-31T18:41:23;20.40;53.50
7077;DHT22;3579;48.956;9.154;2022-12-31T18:43:51;20.50;53.60
7077;DHT22;3579;48.956;9.154;2022-12-31T18:46:20;20.40;53.40
7077;DHT22;3579;48.956;9.154;2022-12-31T18:48:48;20.40;53.50
7077;DHT22;3579;48.956;9.154;2022-12-31T18:51:17;20.40;53.50
7077;DHT22;3579;48.956;9.154;2022-12-31T18:53:44;20.40;53.50
7077;DHT22;3579;48.956;9.154;2022-12-31T18:56:20;20.40;53.50
7077;DHT22;3579;48.956;9.154;2022-12-31T18:58:47;20.40;53.50
7077;DHT22;3579;48.956;9.154;2022-12-31T19:01:29;20.40;53.50
7077;DHT22;3579;48.956;9.154;2022-12-31T19:04:00;20.40;53.60
7077;DHT22;3579;48.956;9.154;2022-12-31T19:06:27;20.40;53.50
7077;DHT22;3579;48.956;9.154;2022-12-31T19:08:54;20.40;53.50
7077;DHT22;3579;48.956;9.154;2022-12-31T19:11:21;20.40;53.50
7077;DHT22;3579;48.956;9.154;2022-12-31T19:13:47;20.40;53.50
7077;DHT22;3579;48.956;9.154;2022-12-31T19:16:14;20.40;53.50
7077;DHT22;3579;48.956;9.154;2022-12-31T19:18:40;20.40;53.50
7077;DHT22;3579;48.956;9.154;2022-12-31T19:21:14;20.40;54.00
7077;DHT22;3579;48.956;9.154;2022-12-31T19:23:40;20.40;53.40
7077;DHT22;3579;48.956;9.154;2022-12-31T19:26:06;20.40;53.40
7077;DHT22;3579;48.956;9.154;2022-12-31T19:28:34;20.40;53.40
7077;DHT22;3579;48.956;9.154;2022-12-31T19:31:01;20.40;53.40
7077;DHT22;3579;48.956;9.154;2022-12-31T19:33:27;20.40;53.50
7077;DHT22;3579;48.956;9.154;2022-12-31T19:35:53;20.30;53.40
7077;DHT22;3579;48.956;9.154;2022-12-31T19:38:21;20.30;53.40
7077;DHT22;3579;48.956;9.154;2022-12-31T19:40:48;20.30;53.40
7077;DHT22;3579;48.956;9.154;2022-12-31T19:43:16;20.30;53.40
7077;DHT22;3579;48.956;9.154;2022-12-31T19:45:43;20.30;53.50
7077;DHT22;3579;48.956;9.154;2022-12-31T19:48:18;20.30;53.50
7077;DHT22;3579;48.956;9.154;2022-12-31T19:50:48;20.30;53.60
7077;DHT22;3579;48.956;9.154;2022-12-31T19:53:17;20.20;53.60
7077;DHT22;3579;48.956;9.154;2022-12-31T19:55:43;20.20;53.60
7077;DHT22;3579;48.956;9.154;2022-12-31T19:58:22;20.20;53.60
7077;DHT22;3579;48.956;9.154;2022-12-31T20:00:50;20.10;53.60
7077;DHT22;3579;48.956;9.154;2022-12-31T20:03:16;20.10;53.60
7077;DHT22;3579;48.956;9.154;2022-12-31T20:05:44;20.10;53.70
7077;DHT22;3579;48.956;9.154;2022-12-31T20:08:11;20.10;53.80
7077;DHT22;3579;48.956;9.154;2022-12-31T20:10:38;20.10;53.80
7077;DHT22;3579;48.956;9.154;2022-12-31T20:13:04;20.10;53.80
7077;DHT22;3579;48.956;9.154;2022-12-31T20:15:30;20.10;53.80
7077;DHT22;3579;48.956;9.154;2022-12-31T20:17:57;20.10;53.80
7077;DHT22;3579;48.956;9.154;2022-12-31T20:20:25;20.10;53.80
7077;DHT22;3579;48.956;9.154;2022-12-31T20:22:57;20.00;53.80
7077;DHT22;3579;48.956;9.154;2022-12-31T20:25:24;20.00;53.80
7077;DHT22;3579;48.956;9.154;2022-12-31T20:27:53;20.00;53.80
7077;DHT22;3579;48.956;9.154;2022-12-31T20:30:20;20.00;53.80
7077;DHT22;3579;48.956;9.154;2022-12-31T20:32:48;20.00;53.80
7077;DHT22;3579;48.956;9.154;2022-12-31T20:35:16;20.00;53.80
7077;DHT22;3579;48.956;9.154;2022-12-31T20:37:42;20.00;53.90
7077;DHT22;3579;48.956;9.154;2022-12-31T20:40:09;20.00;53.90
7077;DHT22;3579;48.956;9.154;2022-12-31T20:42:35;20.00;53.90
7077;DHT22;3579;48.956;9.154;2022-12-31T20:45:07;20.00;53.90
7077;DHT22;3579;48.956;9.154;2022-12-31T20:47:33;20.00;53.90
7077;DHT22;3579;48.956;9.154;2022-12-31T20:49:59;19.90;53.80